ADDS METAR Data INFO
IDs: Format: Raw Decoded Include TAF

Data at: 0936 UTC 17 Oct 2017

KMLU 170853Z AUTO 03005KT 10SM CLR 08/06 A3027 RMK AO2 SLP248 T00830061 58002
KMLU 170753Z AUTO 01004KT 10SM CLR 09/06 A3027 RMK AO2 SLP249 T00890061
KMLU 170653Z AUTO 02004KT 10SM CLR 10/07 A3027 RMK AO2 SLP250 T01000067
KMLU 170553Z AUTO 04004KT 10SM CLR 09/06 A3027 RMK AO2 SLP250 T00940061 10167 20094 402280094 58005
KMLU 170453Z AUTO 00000KT 10SM CLR 11/07 A3029 RMK AO2 SLP255 T01060067
KMLU 170353Z AUTO 02003KT 10SM CLR 11/07 A3029 RMK AO2 SLP255 T01060067
KMLU 170253Z 04005KT 10SM CLR 11/07 A3029 RMK AO2 SLP255 T01060067 51013
KMLU 170153Z 02005KT 10SM CLR 13/07 A3028 RMK AO2 SLP252 T01280072
KMLU 170053Z 02007KT 10SM CLR 14/07 A3026 RMK AO2 SLP246 T01440067
KMLU 162353Z 02007KT 10SM CLR 17/06 A3025 RMK AO2 SLP242 T01670061 10228 20167 53008
KMLU 162253Z 02011KT 10SM CLR 20/06 A3023 RMK AO2 SLP237 T02000056
KMLU 162153Z 01014KT 10SM CLR 21/05 A3023 RMK AO2 SLP235 T02110050
KMLU 162053Z 03013KT 10SM CLR 22/05 A3022 RMK AO2 SLP233 T02220050 56029
KMLU 161953Z 02012G21KT 10SM CLR 22/04 A3025 RMK AO2 SLP241 T02170044
KMLU 161853Z 01009G18KT 10SM CLR 21/07 A3028 RMK AO2 SLP253 T02110067
KMLU 161753Z 01014G17KT 10SM CLR 21/08 A3031 RMK AO2 SLP262 T02060078 10206 20106 58015
KMLU 161653Z 01014KT 10SM CLR 19/08 A3035 RMK AO2 SLP275 T01940078
KMLU 161553Z 05015KT 10SM CLR 17/08 A3036 RMK AO2 SLP280 T01720078
KMLU 161453Z 05015G22KT 10SM CLR 16/09 A3035 RMK AO2 SLP278 T01560089 51016
KMLU 161353Z 02009G17KT 10SM CLR 13/09 A3034 RMK AO2 SLP274 T01330094
KMLU 161253Z 02010KT 10SM CLR 11/09 A3032 RMK AO2 SLP266 T01110089
KMLU 161153Z 02008KT 10SM CLR 11/09 A3031 RMK AO2 SLP262 T01060089 10156 20106 53020
KMLU 161053Z 01007KT 10SM CLR 11/09 A3028 RMK AO2 SLP253 T01110094
KMLU 160953Z AUTO 01007KT 10SM CLR 12/10 A3026 RMK AO2 SLP247 T01220100
KMLU 160853Z AUTO 02007KT 10SM CLR 13/11 A3025 RMK AO2 SLP242 T01280106 51002
KMLU 160753Z AUTO 01008KT 10SM CLR 13/12 A3024 RMK AO2 SLP241 T01330117
KMLU 160653Z AUTO 01006KT 10SM CLR 14/12 A3025 RMK AO2 SLP243 T01390122
KMLU 160553Z AUTO 02007KT 10SM CLR 16/13 A3024 RMK AO2 SLP239 60000 T01560128 10183 20156 403170156 58002
KMLU 160453Z AUTO 02007KT 10SM CLR 16/14 A3025 RMK AO2 SLP241 T01610139
KMLU 160353Z AUTO 01009KT 10SM BKN070 17/15 A3024 RMK AO2 SLP238 T01720150
KMLU 160253Z 03004KT 10SM BKN055 OVC080 18/17 A3024 RMK AO2 RAB01E37 SLP241 P0000 60000 T01780167 51033
KMLU 160228Z 01003KT 10SM -RA OVC055 18/17 A3024 RMK AO2 RAB01 P0000 T01830167
KMLU 160153Z 01005KT 10SM VCTS OVC048 18/17 A3023 RMK AO2 LTG DSNT E AND SE RAE46 SLP237 P0000 T01780167
KMLU 160053Z 02009KT 10SM VCTS -RA OVC041 18/17 A3019 RMK AO2 LTG DSNT E AND S TSB20E41 SLP223 P0000 T01780167
KMLU 160041Z 02008KT 8SM -RA BKN012 OVC018 18/17 A3019 RMK AO2 TSB20E41 P0000 T01830172
KMLU 160034Z 02012KT 9SM -TSRA FEW012 SCT018 OVC036 18/17 A3018 RMK AO2 LTG DSNT S TSB20 P0000 T01830172
KMLU 160026Z 01012KT 10SM -TSRA BKN014 BKN019 OVC034 19/17 A3018 RMK AO2 LTG DSNT S TSB20 P0000 T01890172
KMLU 152353Z 36012KT 10SM -RA BKN014 OVC027 19/17 A3015 RMK AO2 RAB44 SLP208 P0000 60000 T01940172 10317 20194 53037
KMLU 152253Z 36017G24KT 10SM OVC017 21/17 A3011 RMK AO2 PK WND 35028/2157 SLP196 T02060172
KMLU 152153Z COR 35022G26KT 10SM OVC017 24/20 A3006 RMK AO2 PK WND 35026/2153 RAB01E13 SLP179 P0000 T02440200